Time;durP1;ratioP1;P1;durP2;ratioP2;P2;SDS_P1;SDS_P2;PMS_P1;PMS_P2;Temp;Humidity;BMP_temperature;BMP_pressure;BME280_temperature;BME280_humidity;BME280_pressure;Samples;Min_cycle;Max_cycle;Signal;HPM_P1;HPM_P2
2022/09/02 00:01:43;;;;;;;;;6.33;6.33;;;;;28.96;32.90;66586.34;4975925;28;45354;-72
2022/09/02 00:04:12;;;;;;;;;8.00;5.00;;;;;29.01;32.81;66546.38;4975476;28;45347;-72
2022/09/02 00:06:39;;;;;;;;;6.00;5.00;;;;;28.91;32.22;66864.19;4976255;28;45361;-72
2022/09/02 00:09:07;;;;;;;;;4.67;4.67;;;;;28.93;32.68;66721.72;4975124;28;48825;-72
2022/09/02 00:11:34;;;;;;;;;6.00;6.00;;;;;28.93;32.96;66607.44;4968054;28;45386;-72
2022/09/02 00:14:03;;;;;;;;;4.33;4.33;;;;;28.94;32.88;66739.75;4970340;28;45580;-72
2022/09/02 00:16:30;;;;;;;;;6.33;6.00;;;;;28.79;32.87;66586.56;4976523;28;45415;-72
2022/09/02 00:18:56;;;;;;;;;6.00;5.67;;;;;28.75;32.41;66786.00;4972517;28;47133;-72
2022/09/02 00:21:23;;;;;;;;;4.00;4.00;;;;;28.74;32.68;66697.81;4974041;28;45479;-72
2022/09/02 00:23:49;;;;;;;;;4.67;4.67;;;;;28.87;32.36;66783.44;4975933;28;45546;-72
2022/09/02 00:26:14;;;;;;;;;9.00;6.67;;;;;28.85;33.38;66614.63;4976285;28;45360;-72
2022/09/02 00:28:40;;;;;;;;;5.33;5.33;;;;;28.83;32.85;66770.69;4975557;28;45953;-72
2022/09/02 00:31:06;;;;;;;;;4.67;4.67;;;;;28.82;33.09;66551.91;4975859;28;45548;-72
2022/09/02 00:33:32;;;;;;;;;6.00;4.67;;;;;28.79;33.27;66510.97;4974493;28;45498;-79
2022/09/02 00:35:59;;;;;;;;;6.33;6.33;;;;;28.76;33.29;66672.91;4974682;28;45434;-80
2022/09/02 00:38:25;;;;;;;;;5.33;5.33;;;;;28.77;32.27;66894.97;4975302;28;46210;-80
2022/09/02 00:40:50;;;;;;;;;8.00;6.00;;;;;28.69;33.01;66700.28;4974702;28;45754;-78
2022/09/02 00:43:43;;;;;;;;;9.00;6.00;;;;;28.73;32.95;66667.34;4974783;28;45504;-79
2022/09/02 00:46:10;;;;;;;;;5.00;5.00;;;;;28.73;32.60;66844.16;4973980;28;45317;-79
2022/09/02 00:48:40;;;;;;;;;6.33;5.67;;;;;28.68;32.75;66742.63;4974664;28;46373;-79
2022/09/02 00:51:07;;;;;;;;;6.67;6.33;;;;;28.70;32.63;66709.56;4974660;28;45468;-79
2022/09/02 00:53:33;;;;;;;;;4.67;4.67;;;;;28.68;33.31;66718.16;4972788;28;45539;-79
2022/09/02 00:56:01;;;;;;;;;7.00;6.00;;;;;28.70;32.87;66763.97;4974749;28;45479;-79
2022/09/02 00:58:32;;;;;;;;;7.00;5.33;;;;;28.66;32.75;66803.50;4972994;28;46149;-79
2022/09/02 01:00:58;;;;;;;;;7.00;6.00;;;;;28.65;33.26;66698.41;4972992;28;45480;-79
2022/09/02 01:03:27;;;;;;;;;6.33;6.33;;;;;28.68;33.02;66612.06;4974552;28;45403;-79
2022/09/02 01:05:54;;;;;;;;;5.00;5.00;;;;;28.56;33.14;66700.13;4974531;28;45575;-79
2022/09/02 01:08:26;;;;;;;;;6.00;4.67;;;;;28.61;33.20;66697.72;4974041;28;45506;-79
2022/09/02 01:10:56;;;;;;;;;5.00;5.00;;;;;28.59;33.24;66727.47;4974822;28;45597;-80
2022/09/02 01:13:27;;;;;;;;;6.33;6.33;;;;;28.55;33.13;66718.03;4944901;28;45564;-80
2022/09/02 01:15:57;;;;;;;;;7.00;6.00;;;;;28.51;34.03;66552.44;4968159;28;45395;-80
2022/09/02 01:18:28;;;;;;;;;5.33;5.33;;;;;28.49;33.33;66675.81;4974600;28;47346;-80
2022/09/02 01:20:55;;;;;;;;;9.67;6.00;;;;;28.39;33.59;66678.50;4973689;28;45463;-80
2022/09/02 01:23:21;;;;;;;;;7.33;7.33;;;;;28.48;33.94;66505.53;4975073;28;45459;-80
2022/09/02 01:25:47;;;;;;;;;5.33;4.67;;;;;28.38;33.47;66601.25;4975581;28;45354;-79
2022/09/02 01:28:15;;;;;;;;;8.67;6.33;;;;;28.49;33.98;66550.16;4974644;28;46399;-80
2022/09/02 01:30:48;;;;;;;;;5.33;5.33;;;;;28.52;34.16;66338.81;4974889;28;45410;-79
2022/09/02 01:33:15;;;;;;;;;5.00;5.00;;;;;28.49;34.50;66281.56;4970194;28;45349;-72
2022/09/02 01:35:41;;;;;;;;;6.67;6.67;;;;;28.48;33.89;66381.03;4975300;28;45486;-72
2022/09/02 01:38:06;;;;;;;;;7.00;6.00;;;;;28.46;34.32;66408.66;4974056;28;45652;-72
2022/09/02 01:40:32;;;;;;;;;2.00;2.00;;;;;28.47;34.29;66363.59;4974934;28;45370;-72
2022/09/02 01:43:01;;;;;;;;;4.00;4.00;;;;;28.39;34.03;66412.09;4974353;28;45386;-72
2022/09/02 01:45:28;;;;;;;;;4.67;4.67;;;;;28.37;34.12;66390.78;4974268;28;45486;-72
2022/09/02 01:47:53;;;;;;;;;6.00;6.00;;;;;28.45;34.07;66458.56;4974607;28;46244;-72
2022/09/02 01:50:19;;;;;;;;;4.00;4.00;;;;;28.44;34.06;66340.53;4974328;28;45508;-72
2022/09/02 01:52:44;;;;;;;;;6.67;6.00;;;;;28.37;34.43;66352.16;4973529;28;45258;-72
2022/09/02 01:55:10;;;;;;;;;5.00;5.00;;;;;28.44;34.02;66400.34;4975384;28;45570;-72
2022/09/02 01:57:35;;;;;;;;;5.33;5.00;;;;;28.42;34.01;66483.50;4974354;28;46174;-72
2022/09/02 02:00:03;;;;;;;;;6.67;6.67;;;;;28.40;33.79;66439.84;4974927;28;45457;-72
2022/09/02 02:02:28;;;;;;;;;5.00;5.00;;;;;28.36;34.40;66348.88;4973987;28;45367;-72
2022/09/02 02:04:54;;;;;;;;;6.00;6.00;;;;;28.27;34.25;66363.09;4974483;28;45501;-72
2022/09/02 02:07:21;;;;;;;;;6.00;6.00;;;;;28.22;34.46;66411.19;4974079;28;45644;-72
2022/09/02 02:09:48;;;;;;;;;7.00;7.00;;;;;28.17;34.25;66452.84;4968395;28;45489;-72
2022/09/02 02:12:14;;;;;;;;;7.67;7.67;;;;;28.13;35.17;66143.94;4974434;28;45514;-72
2022/09/02 02:14:39;;;;;;;;;6.00;6.00;;;;;28.09;37.76;64395.44;4969424;28;45493;-72
2022/09/02 02:17:05;;;;;;;;;6.33;6.33;;;;;28.02;38.67;63556.31;4974168;28;46573;-72
2022/09/02 02:19:30;;;;;;;;;6.00;6.00;;;;;27.89;40.64;58776.41;4973315;28;45954;-72
2022/09/02 02:21:56;;;;;;;;;7.33;7.00;;;;;27.75;43.06;47148.94;4973008;28;45635;-72
2022/09/02 02:24:22;;;;;;;;;5.33;3.33;;;;;27.66;43.98;37417.63;4974620;28;45463;-72
2022/09/02 02:26:48;;;;;;;;;8.33;8.33;;;;;27.55;44.81;26513.81;4973367;28;46316;-72
2022/09/02 02:29:13;;;;;;;;;8.00;8.00;;;;;27.41;45.40;19003.97;4972307;28;45621;-72
2022/09/02 02:31:40;;;;;;;;;8.67;8.67;;;;;27.32;45.79;17628.41;4973474;28;45952;-72
2022/09/02 02:34:06;;;;;;;;;10.00;8.33;;;;;27.20;45.49;17281.09;4974271;28;45488;-72
2022/09/02 02:36:31;;;;;;;;;13.67;12.00;;;;;27.11;44.11;24487.16;4973849;28;45273;-72
2022/09/02 02:38:57;;;;;;;;;13.00;13.00;;;;;27.01;44.51;23452.16;4961657;28;45467;-72
2022/09/02 02:41:22;;;;;;;;;17.00;15.00;;;;;26.93;45.57;15215.88;4959601;28;45717;-72
2022/09/02 02:43:48;;;;;;;;;15.00;13.67;;;;;26.72;44.81;21723.63;4963133;28;45804;-72
2022/09/02 02:46:14;;;;;;;;;14.67;13.67;;;;;26.86;46.66;9051.16;4973655;28;46057;-72
2022/09/02 02:48:40;;;;;;;;;17.67;16.33;;;;;26.74;45.97;10759.34;4971554;28;45404;-72
2022/09/02 02:51:06;;;;;;;;;13.67;13.67;;;;;26.74;46.34;10759.34;4972817;28;45439;-72
2022/09/02 02:53:33;;;;;;;;;16.00;16.00;;;;;26.69;45.18;16579.19;4974222;28;45493;-72
2022/09/02 02:55:59;;;;;;;;;15.00;13.33;;;;;26.70;46.72;8364.03;4973558;28;46461;-72
2022/09/02 02:58:25;;;;;;;;;15.67;15.67;;;;;26.65;46.83;5970.38;4976023;28;45393;-72
2022/09/02 03:00:50;;;;;;;;;16.33;14.67;;;;;26.60;47.28;4603.06;4976974;28;45805;-72
2022/09/02 03:03:21;;;;;;;;;14.33;14.33;;;;;26.57;46.79;6652.47;4977189;28;45451;-72
2022/09/02 03:05:48;;;;;;;;;13.67;13.67;;;;;26.52;46.49;6993.44;4976021;28;46163;-72
2022/09/02 03:08:14;;;;;;;;;13.00;12.00;;;;;26.47;46.77;7334.38;4976048;28;45400;-72
2022/09/02 03:10:41;;;;;;;;;13.67;13.67;;;;;26.46;46.97;4942.78;4975860;28;45512;-72
2022/09/02 03:13:09;;;;;;;;;14.33;12.33;;;;;26.41;47.57;-517.81;4976536;28;45410;-72
2022/09/02 03:15:36;;;;;;;;;10.67;10.67;;;;;26.38;47.22;164.09;4966850;28;45441;-72
2022/09/02 03:18:02;;;;;;;;;13.00;11.00;;;;;26.31;48.36;-2222.63;4975945;28;45430;-72
2022/09/02 03:20:28;;;;;;;;;12.67;12.00;;;;;26.37;48.75;-8352.56;4974281;28;45477;-72
2022/09/02 03:22:56;;;;;;;;;12.00;11.00;;;;;26.39;48.93;-6991.31;4970702;28;45320;-72
2022/09/02 03:25:22;;;;;;;;;10.33;9.33;;;;;26.30;48.71;-7331.22;4975601;28;47122;-72
2022/09/02 03:27:48;;;;;;;;;13.33;11.67;;;;;26.37;49.01;-7331.59;4973950;28;46031;-72
2022/09/02 03:30:21;;;;;;;;;9.00;9.00;;;;;26.38;48.45;-5288.81;4975583;28;45427;-72
2022/09/02 03:32:47;;;;;;;;;8.67;8.67;;;;;26.32;48.45;-4266.91;4976457;28;45457;-72
2022/09/02 03:35:17;;;;;;;;;14.67;11.00;;;;;26.35;48.54;-5969.75;4975888;28;47509;-79
2022/09/02 03:37:44;;;;;;;;;12.67;10.00;;;;;26.27;48.00;-859.34;4976017;28;45308;-79
2022/09/02 03:40:13;;;;;;;;;9.33;9.33;;;;;26.25;47.63;2550.97;4976126;28;45518;-79
2022/09/02 03:42:39;;;;;;;;;11.00;9.67;;;;;26.22;47.50;163.16;4961861;28;45472;-79
2022/09/02 03:45:07;;;;;;;;;9.33;7.00;;;;;26.25;47.99;-2222.75;4973925;28;45517;-79
2022/09/02 03:47:32;;;;;;;;;13.33;9.00;;;;;26.27;47.66;-1541.13;4974726;28;45573;-79
2022/09/02 03:49:58;;;;;;;;;15.00;9.67;;;;;26.21;48.22;-2222.84;4973899;28;45482;-79
2022/09/02 03:52:24;;;;;;;;;10.67;9.33;;;;;26.26;48.24;-3926.25;4973493;28;45994;-79
2022/09/02 03:54:50;;;;;;;;;10.67;9.00;;;;;26.28;47.83;-2563.47;4974156;28;45428;-79
2022/09/02 03:57:15;;;;;;;;;9.00;9.00;;;;;26.23;48.01;-518.63;4974133;28;45509;-79
2022/09/02 03:59:41;;;;;;;;;10.67;9.00;;;;;26.23;48.37;-1882.03;4971786;28;45768;-79
2022/09/02 04:02:07;;;;;;;;;9.00;8.33;;;;;26.18;48.17;-2222.91;4973405;28;45857;-79
2022/09/02 04:04:33;;;;;;;;;7.67;7.67;;;;;26.19;48.35;-3244.97;4973585;28;48407;-79
2022/09/02 04:06:59;;;;;;;;;8.67;8.67;;;;;26.18;48.33;-4947.78;4969957;28;45479;-79
2022/09/02 04:09:24;;;;;;;;;8.00;8.00;;;;;26.21;48.37;-5628.78;4968512;28;45426;-79
2022/09/02 04:11:50;;;;;;;;;11.33;8.00;;;;;26.22;49.08;-8351.47;4974416;28;45798;-79
2022/09/02 04:14:16;;;;;;;;;8.00;8.00;;;;;26.19;49.52;-9711.72;4973553;28;45939;-79
2022/09/02 04:16:42;;;;;;;;;10.33;9.00;;;;;26.19;49.28;-10051.78;4974536;28;45424;-79
2022/09/02 04:19:08;;;;;;;;;10.33;8.33;;;;;26.11;49.44;-10730.97;4972996;28;45382;-79
2022/09/02 04:21:36;;;;;;;;;7.67;7.67;;;;;26.16;49.68;-10051.47;4976020;28;45331;-80
2022/09/02 04:24:03;;;;;;;;;6.33;6.33;;;;;26.17;48.98;-9031.34;4975079;28;45467;-79
2022/09/02 04:26:28;;;;;;;;;9.00;7.00;;;;;26.22;49.63;-9031.84;4975720;28;45408;-80
2022/09/02 04:28:54;;;;;;;;;8.67;6.67;;;;;26.28;48.94;-8011.69;4964397;28;45538;-80
2022/09/02 04:31:24;;;;;;;;;9.33;9.00;;;;;26.20;48.95;-8351.31;4975494;28;45497;-80
2022/09/02 04:33:50;;;;;;;;;10.33;9.33;;;;;26.20;49.67;-9371.78;4962651;28;45387;-72
2022/09/02 04:36:16;;;;;;;;;9.33;8.00;;;;;26.16;49.34;-11071.47;4975757;28;45377;-72
2022/09/02 04:38:42;;;;;;;;;9.33;8.00;;;;;26.11;50.43;-13789.13;4975111;28;45399;-72
2022/09/02 04:41:14;;;;;;;;;16.00;11.67;;;;;26.18;53.77;-19902.09;4974180;28;45616;-72
2022/09/02 04:43:40;;;;;;;;;11.00;10.00;;;;;26.13;56.19;-19900.63;4973990;28;46076;-72
2022/09/02 04:46:09;;;;;;;;;16.67;12.67;;;;;26.01;57.20;-19897.59;4975271;28;45492;-72
2022/09/02 04:48:35;;;;;;;;;10.33;8.67;;;;;25.83;58.01;-19892.97;4975815;28;45354;-72
2022/09/02 04:51:11;;;;;;;;;13.33;12.33;;;;;25.73;59.15;-19890.44;4973469;28;45485;-72
2022/09/02 04:53:37;;;;;;;;;13.00;10.33;;;;;25.55;62.19;-19885.81;4978377;28;47027;-72
2022/09/02 04:56:05;;;;;;;;;12.00;8.67;;;;;25.54;60.27;-19885.41;4975095;28;45521;-71
2022/09/02 04:58:30;;;;;;;;;13.00;11.00;;;;;25.50;62.78;-19884.50;4972150;28;45435;-73
2022/09/02 05:00:55;;;;;;;;;14.00;12.67;;;;;25.42;64.08;-19882.50;4974264;28;45579;-73
2022/09/02 05:03:22;;;;;;;;;13.33;13.00;;;;;25.39;64.47;-19881.72;4973547;28;46325;-73
2022/09/02 05:05:57;;;;;;;;;11.67;9.67;;;;;25.35;64.44;-19880.66;4971638;28;45300;-71
2022/09/02 05:08:22;;;;;;;;;14.33;11.67;;;;;25.27;64.99;-19878.53;4968573;28;45429;-71
2022/09/02 05:10:49;;;;;;;;;11.67;11.67;;;;;25.29;65.33;-19879.06;4971852;28;46249;-72
2022/09/02 05:13:14;;;;;;;;;12.00;10.33;;;;;25.31;64.78;-19879.59;4966557;28;47102;-72
2022/09/02 05:15:40;;;;;;;;;10.67;10.67;;;;;25.30;66.68;-19879.19;4967684;28;45513;-72
2022/09/02 05:18:06;;;;;;;;;13.33;11.67;;;;;25.24;64.29;-19877.75;4968758;28;45423;-72
2022/09/02 05:20:31;;;;;;;;;13.33;12.00;;;;;25.20;64.44;-19876.69;4969603;28;45986;-72
2022/09/02 05:22:57;;;;;;;;;9.67;8.67;;;;;25.21;67.41;-19877.06;4966510;28;46958;-72
2022/09/02 05:25:22;;;;;;;;;11.33;10.33;;;;;25.22;64.45;-19877.34;4970176;28;45481;-72
2022/09/02 05:27:47;;;;;;;;;16.67;12.33;;;;;25.27;64.73;-19878.53;4964618;28;45387;-72
2022/09/02 05:30:13;;;;;;;;;9.00;8.33;;;;;25.25;65.86;-19878.13;4973771;28;45541;-72
2022/09/02 05:32:40;;;;;;;;;11.67;9.33;;;;;25.23;64.15;-19877.47;4975138;28;45412;-73
2022/09/02 05:35:05;;;;;;;;;14.00;13.33;;;;;25.33;65.74;-19880.13;5040977;28;46194;-72
2022/09/02 05:37:31;;;;;;;;;12.33;10.33;;;;;25.32;62.85;-19879.84;4975061;28;45377;-71
2022/09/02 05:39:56;;;;;;;;;13.33;11.33;;;;;25.46;60.72;-19883.44;4970440;28;45309;-71
2022/09/02 05:42:21;;;;;;;;;10.00;10.00;;;;;25.42;61.28;-19882.50;4971845;28;48630;-73
2022/09/02 05:44:47;;;;;;;;;14.67;12.67;;;;;25.37;63.16;-19881.03;4974236;28;45312;-73
2022/09/02 05:47:12;;;;;;;;;11.33;10.00;;;;;25.23;61.81;-19877.47;4968500;28;46623;-72
2022/09/02 05:49:38;;;;;;;;;12.00;12.00;;;;;25.39;60.38;-19881.72;4966361;28;45530;-72
2022/09/02 05:52:04;;;;;;;;;10.67;10.67;;;;;25.42;59.45;-19882.50;4968088;28;46153;-76
2022/09/02 05:54:35;;;;;;;;;13.00;11.00;;;;;25.41;58.62;-19882.09;4969689;28;45462;-73
2022/09/02 05:57:08;;;;;;;;;18.67;15.00;;;;;25.25;59.04;-19878.00;4968504;28;45524;-77
2022/09/02 05:59:38;;;;;;;;;18.67;16.33;;;;;25.38;59.79;-19881.31;4977475;28;45517;-74
2022/09/02 06:02:05;;;;;;;;;19.00;19.00;;;;;25.27;59.92;-19878.66;4982172;28;45795;-73
2022/09/02 06:04:31;;;;;;;;;23.00;19.67;;;;;25.23;60.09;-19877.59;4968767;28;45567;-74
2022/09/02 06:06:56;;;;;;;;;15.67;13.00;;;;;25.30;58.93;-19879.31;4973909;28;46475;-74
2022/09/02 06:09:22;;;;;;;;;14.00;12.67;;;;;25.30;59.03;-19879.19;4968701;28;45412;-74
2022/09/02 06:11:50;;;;;;;;;17.33;15.33;;;;;25.22;58.93;-19877.34;4967986;28;46075;-73
2022/09/02 06:14:20;;;;;;;;;53.33;43.67;;;;;25.26;60.73;-19878.41;4985119;28;45695;-75
2022/09/02 06:16:46;;;;;;;;;16.67;13.67;;;;;25.15;59.51;-19875.47;4967762;28;45423;-74
2022/09/02 06:19:12;;;;;;;;;7.33;7.00;;;;;25.23;59.73;-19877.47;4967133;28;45562;-75
2022/09/02 06:21:38;;;;;;;;;13.00;11.67;;;;;25.26;57.72;-19878.41;4965631;28;46348;-75
2022/09/02 06:24:06;;;;;;;;;11.67;11.67;;;;;25.32;57.16;-19879.84;4962655;28;45457;-74
2022/09/02 06:26:32;;;;;;;;;13.00;12.00;;;;;25.32;57.49;-19879.72;4968139;28;45605;-75
2022/09/02 06:28:57;;;;;;;;;13.00;11.33;;;;;25.27;56.59;-19876.53;4966297;28;45776;-75
2022/09/02 06:31:23;;;;;;;;;11.00;11.00;;;;;25.35;56.40;-19878.66;4967041;28;45991;-74
2022/09/02 06:33:53;;;;;;;;;12.67;12.67;;;;;25.26;56.35;-19876.41;5003587;28;45388;-81
2022/09/02 06:36:19;;;;;;;;;8.33;7.67;;;;;25.35;56.41;-19539.94;4975493;28;45538;-78
2022/09/02 06:38:47;;;;;;;;;10.33;9.67;;;;;25.37;55.99;-18862.88;4971547;28;45403;-83
2022/09/02 06:41:15;;;;;;;;;9.33;7.00;;;;;25.15;55.52;-17163.63;4966212;28;46327;-81
2022/09/02 06:43:41;;;;;;;;;12.33;10.00;;;;;24.82;58.02;-19867.00;4967784;28;45878;-75
2022/09/02 06:46:07;;;;;;;;;10.00;10.00;;;;;24.88;56.87;-19866.34;4968065;28;45473;-74
2022/09/02 06:48:33;;;;;;;;;12.33;11.00;;;;;25.01;58.17;-19871.91;4973156;28;45369;-73
2022/09/02 06:51:00;;;;;;;;;10.67;10.33;;;;;25.10;57.13;-19874.03;4972938;28;46452;-83
2022/09/02 06:53:26;;;;;;;;;10.33;10.33;;;;;25.13;57.11;-19872.97;4963739;28;45490;-78
2022/09/02 06:55:51;;;;;;;;;10.00;10.00;;;;;25.34;56.56;-19539.53;4962512;28;45274;-83
2022/09/02 06:58:17;;;;;;;;;10.67;9.33;;;;;25.42;55.63;-18525.13;4970834;28;45335;-80
2022/09/02 07:00:43;;;;;;;;;8.67;8.67;;;;;25.36;53.83;-14455.47;4958268;28;45270;-75
2022/09/02 07:06:09;;;;;;;;;9.33;9.33;;;;;25.51;55.94;-17849.28;4975563;28;45333;-79
2022/09/02 07:08:40;;;;;;;;;11.67;10.00;;;;;25.50;53.62;-13779.25;4938971;27;1245575;-76
2022/09/02 07:11:15;;;;;;;;;7.33;7.33;;;;;25.54;54.92;-15137.03;4968050;28;46039;-77
2022/09/02 07:13:41;;;;;;;;;12.33;9.00;;;;;25.53;56.28;-18188.84;4967691;28;45390;-76
2022/09/02 07:16:06;;;;;;;;;11.00;8.33;;;;;25.56;55.37;-17511.41;4965036;28;45373;-81
2022/09/02 07:18:33;;;;;;;;;11.33;9.33;;;;;25.61;53.78;-14120.38;4976658;28;45530;-78
2022/09/02 07:20:59;;;;;;;;;13.67;11.00;;;;;25.57;53.67;-12422.59;4974672;28;45546;-78
2022/09/02 07:23:24;;;;;;;;;9.33;9.33;;;;;25.54;53.29;-12422.16;4975782;28;45437;-80
2022/09/02 07:25:49;;;;;;;;;9.00;9.00;;;;;25.47;54.53;-13439.50;4975971;28;45563;-80
2022/09/02 07:28:15;;;;;;;;;8.00;8.00;;;;;25.45;53.66;-13099.81;4972648;28;45402;-80
2022/09/02 07:30:42;;;;;;;;;12.33;11.33;;;;;25.52;53.39;-12082.38;4975872;28;46441;-83
2022/09/02 07:33:10;;;;;;;;;11.00;9.33;;;;;25.58;54.02;-11743.66;4975907;28;45456;-82
2022/09/02 07:35:37;;;;;;;;;9.67;8.33;;;;;25.63;53.80;-10725.50;4968992;28;45500;-84
2022/09/02 07:38:03;;;;;;;;;9.67;8.00;;;;;25.70;54.33;-10046.81;4969843;28;45487;-84
2022/09/02 07:40:28;;;;;;;;;8.67;7.33;;;;;25.76;54.21;-9707.56;4967798;28;46818;-81
2022/09/02 07:42:54;;;;;;;;;9.00;9.00;;;;;25.74;53.44;-9707.31;4975227;28;45456;-76
2022/09/02 07:45:20;;;;;;;;;10.67;10.67;;;;;25.72;53.63;-8347.66;4969783;28;45514;-77
2022/09/02 07:47:45;;;;;;;;;9.00;9.00;;;;;25.80;52.98;-8688.25;4970508;28;45614;-77
2022/09/02 07:50:12;;;;;;;;;9.00;8.67;;;;;25.95;52.54;-8349.41;4974260;28;46342;-76
2022/09/02 07:52:37;;;;;;;;;13.33;12.00;;;;;25.96;53.08;-6308.50;4973633;28;45400;-76
2022/09/02 07:55:04;;;;;;;;;13.00;10.00;;;;;25.87;52.82;-3513.75;4975177;28;45507;-76
2022/09/02 07:57:30;;;;;;;;;13.00;10.67;;;;;25.80;53.13;-148.03;4975478;28;45383;-76
2022/09/02 07:59:56;;;;;;;;;9.33;8.00;;;;;25.72;52.32;-970.78;4974003;28;46094;-76
2022/09/02 08:02:22;;;;;;;;;8.67;7.00;;;;;25.68;52.04;-1260.94;4975252;28;45391;-76
2022/09/02 08:04:47;;;;;;;;;10.00;10.00;;;;;25.72;51.94;2279.53;4974801;28;45456;-76
2022/09/02 08:07:13;;;;;;;;;10.33;9.00;;;;;25.67;51.37;695.00;4975691;28;45433;-76
2022/09/02 08:09:38;;;;;;;;;10.33;10.33;;;;;25.61;51.81;1820.59;4975143;28;45448;-77
2022/09/02 08:12:04;;;;;;;;;10.33;8.67;;;;;25.72;50.74;-827.09;4973834;28;45442;-77
2022/09/02 08:14:29;;;;;;;;;10.33;10.33;;;;;25.76;50.90;-520.88;4975133;28;45489;-77
2022/09/02 08:16:56;;;;;;;;;10.00;9.00;;;;;25.74;50.52;-180.31;4975448;28;45411;-76
2022/09/02 08:19:23;;;;;;;;;7.67;7.67;;;;;25.73;51.13;1925.41;4970823;28;46228;-76
2022/09/02 08:21:49;;;;;;;;;12.33;9.33;;;;;25.70;50.88;5748.19;4974580;28;45439;-76
2022/09/02 08:24:14;;;;;;;;;9.00;8.33;;;;;25.72;50.28;2189.00;4974853;28;45349;-76
2022/09/02 08:26:40;;;;;;;;;9.33;9.33;;;;;25.66;49.73;2545.25;4974059;28;45484;-76
2022/09/02 08:29:06;;;;;;;;;9.33;9.33;;;;;25.63;51.54;11732.44;4974600;28;45541;-77
2022/09/02 08:31:32;;;;;;;;;10.33;10.33;;;;;25.53;50.79;8037.97;4973118;28;45816;-76
2022/09/02 08:33:59;;;;;;;;;9.33;9.33;;;;;25.55;51.08;14496.31;4970605;28;45739;-76
2022/09/02 08:36:25;;;;;;;;;11.00;11.00;;;;;25.47;51.16;15736.09;4975014;28;45579;-76
2022/09/02 08:38:51;;;;;;;;;12.50;11.00;;;;;25.59;52.23;21271.88;4974617;28;45914;-75
2022/09/02 08:41:46;;;;;;;;;13.00;13.00;;;;;25.55;52.60;29036.63;4974380;28;45523;-76
2022/09/02 08:44:20;;;;;;;;;13.67;12.67;;;;;25.53;52.73;25997.06;4968746;28;45533;-75
2022/09/02 08:46:47;;;;;;;;;12.00;10.33;;;;;25.55;53.19;33328.25;4971608;28;45414;-75
2022/09/02 08:49:24;;;;;;;;;11.00;11.00;;;;;25.55;53.86;32252.53;4971506;28;46175;-75
2022/09/02 08:51:55;;;;;;;;;11.33;10.00;;;;;25.45;54.26;29616.25;4966663;28;45296;-76
2022/09/02 08:54:40;;;;;;;;;10.67;10.67;;;;;25.39;54.83;30754.81;4973216;28;45740;-76
2022/09/02 08:57:06;;;;;;;;;11.00;11.00;;;;;25.40;54.94;20940.78;4974785;28;45476;-76
2022/09/02 08:59:32;;;;;;;;;12.00;9.67;;;;;25.39;55.59;18745.16;4974381;28;45407;-77
2022/09/02 09:02:28;;;;;;;;;12.00;10.00;;;;;25.42;55.51;4944.94;4970797;28;45345;-76
2022/09/02 09:05:18;;;;;;;;;12.00;12.00;;;;;25.35;55.90;-2564.84;4969215;28;45530;-75
2022/09/02 09:08:05;;;;;;;;;11.00;11.00;;;;;25.32;55.52;9569.69;4970891;28;45515;-76
2022/09/02 09:10:46;;;;;;;;;13.67;12.00;;;;;25.38;55.33;-2865.19;4972599;28;46445;-76
2022/09/02 09:13:46;;;;;;;;;16.00;13.33;;;;;25.32;55.26;12415.97;4975204;28;45536;-76
2022/09/02 09:16:24;;;;;;;;;13.00;11.67;;;;;25.31;55.80;1355.06;4979038;28;45304;-76
2022/09/02 09:19:07;;;;;;;;;13.00;12.00;;;;;25.33;55.54;12482.94;4974942;28;45380;-76
2022/09/02 09:21:33;;;;;;;;;15.33;13.00;;;;;25.37;56.30;-2564.84;4974634;28;46301;-76
2022/09/02 09:24:09;;;;;;;;;12.00;11.33;;;;;25.44;55.77;158.66;4972823;28;45263;-75
2022/09/02 09:26:39;;;;;;;;;12.33;12.33;;;;;25.51;55.82;15395.41;4973944;28;45414;-76
2022/09/02 09:29:05;;;;;;;;;15.00;12.33;;;;;25.59;56.01;11309.75;4974116;28;45477;-75
2022/09/02 09:31:34;;;;;;;;;16.33;15.67;;;;;25.66;57.00;-13442.47;4964021;28;45563;-76
2022/09/02 09:34:08;;;;;;;;;11.67;11.67;;;;;25.78;55.39;13749.66;4973929;28;45382;-76
2022/09/02 09:36:39;;;;;;;;;13.33;13.33;;;;;25.91;55.12;22628.44;4974914;28;45407;-76
2022/09/02 09:39:19;;;;;;;;;15.00;12.00;;;;;25.93;54.63;30174.94;4975263;28;45391;-76
2022/09/02 09:41:45;;;;;;;;;13.00;11.67;;;;;25.98;53.41;28248.78;4955297;28;48260;-76
2022/09/02 09:44:44;;;;;;;;;17.00;13.67;;;;;26.62;51.89;26174.31;4974708;28;45457;-74
2022/09/02 09:47:13;;;;;;;;;12.33;11.67;;;;;27.33;52.35;29812.00;4956926;28;45509;-73
2022/09/02 09:49:39;;;;;;;;;15.00;13.33;;;;;27.90;50.63;11214.09;4974927;28;45344;-74
2022/09/02 09:52:05;;;;;;;;;13.33;10.33;;;;;28.27;49.10;-1876.66;4973422;28;45956;-74
2022/09/02 09:54:31;;;;;;;;;14.00;13.00;;;;;28.44;47.71;-850.13;4974597;28;45471;-74
2022/09/02 09:57:16;;;;;;;;;14.00;11.00;;;;;28.54;46.29;2573.00;4974861;28;45525;-74
2022/09/02 09:59:46;;;;;;;;;11.33;11.00;;;;;28.65;45.78;3601.69;4974955;28;45359;-74
2022/09/02 10:02:29;;;;;;;;;13.00;12.00;;;;;28.80;47.00;1548.03;4974231;28;47181;-73
2022/09/02 10:05:30;;;;;;;;;11.67;11.67;;;;;29.07;46.53;1207.56;4974693;28;45424;-74
2022/09/02 10:08:21;;;;;;;;;10.67;10.67;;;;;29.21;45.03;4636.81;4974093;28;45300;-74
2022/09/02 10:11:20;;;;;;;;;13.00;10.33;;;;;29.33;43.84;7040.31;4974826;28;45351;-74
2022/09/02 10:13:45;;;;;;;;;11.00;10.33;;;;;29.29;43.32;10129.91;4974246;28;46264;-74
2022/09/02 10:16:45;;;;;;;;;10.67;10.67;;;;;29.21;44.83;7381.56;4974080;28;45350;-74
2022/09/02 10:19:20;;;;;;;;;17.33;13.00;;;;;29.09;44.50;8065.78;4981721;28;45306;-74
2022/09/02 10:22:01;;;;;;;;;11.00;10.67;;;;;29.04;44.48;8408.22;4974600;28;45438;-74
2022/09/02 10:24:54;;;;;;;;;14.33;14.00;;;;;28.93;44.43;8749.25;4974286;28;46161;-74
2022/09/02 10:27:31;;;;;;;;;15.33;15.00;;;;;28.82;44.92;8747.06;4963515;28;45424;-74
2022/09/02 10:30:05;;;;;;;;;15.00;13.33;;;;;28.76;45.17;9088.97;4973064;28;45512;-74
2022/09/02 10:33:18;;;;;;;;;14.67;12.00;;;;;28.63;45.70;8400.38;4974619;28;45342;-74
2022/09/02 10:35:51;;;;;;;;;15.00;12.33;;;;;28.52;46.01;7712.44;4913938;28;45619;-76
2022/09/02 10:38:40;;;;;;;;;16.67;16.33;;;;;28.49;45.09;9426.53;4913935;28;45713;-76
2022/09/02 10:41:16;;;;;;;;;13.33;13.00;;;;;28.41;45.06;10797.16;4913624;28;45472;-76
2022/09/02 10:43:47;;;;;;;;;13.00;13.00;;;;;28.39;45.14;11139.69;4913945;28;45749;-76
2022/09/02 10:46:17;;;;;;;;;14.67;12.67;;;;;28.30;45.38;10451.50;4913437;28;45513;-76
2022/09/02 10:49:10;;;;;;;;;12.67;12.33;;;;;28.34;45.76;9766.53;4913916;28;45570;-76
2022/09/02 10:52:03;;;;;;;;;16.00;13.33;;;;;28.35;45.44;11138.84;4913689;28;45326;-76
2022/09/02 10:54:53;;;;;;;;;14.00;14.00;;;;;28.28;45.40;11480.13;4913927;28;45412;-76
2022/09/02 10:57:27;;;;;;;;;22.33;20.00;;;;;27.92;45.34;13186.50;4913659;28;46273;-76
2022/09/02 11:00:13;;;;;;;;;14.67;11.67;;;;;27.61;45.71;13521.13;4913489;28;45515;-76
2022/09/02 11:02:47;;;;;;;;;15.00;11.33;;;;;27.65;46.80;13179.19;4913475;28;45431;-76
2022/09/02 11:05:26;;;;;;;;;13.00;13.00;;;;;27.49;48.36;17674.28;4914195;28;45495;-76
2022/09/02 11:08:02;;;;;;;;;17.67;15.33;;;;;27.46;48.50;23860.56;4972045;28;47084;-76
2022/09/02 11:10:38;;;;;;;;;14.67;14.67;;;;;27.40;50.06;36175.25;4973698;28;45470;-76
2022/09/02 11:13:14;;;;;;;;;16.33;14.33;;;;;27.39;48.70;26812.09;4973440;28;45469;-75
2022/09/02 11:15:53;;;;;;;;;15.33;13.33;;;;;27.35;49.01;30436.69;4974122;28;45280;-76
2022/09/02 11:18:31;;;;;;;;;18.00;15.67;;;;;27.27;49.78;36010.97;4974048;28;45540;-76
2022/09/02 11:21:26;;;;;;;;;17.00;13.67;;;;;27.15;49.80;39214.22;4976605;28;45464;-76
2022/09/02 11:24:19;;;;;;;;;20.33;15.00;;;;;27.21;48.54;31803.47;4976683;28;45496;-76
2022/09/02 11:27:03;;;;;;;;;16.33;16.00;;;;;27.23;50.72;56477.78;4976940;28;45313;-76
2022/09/02 11:29:54;;;;;;;;;16.33;14.33;;;;;27.16;49.51;42355.44;4976202;28;46336;-76
2022/09/02 11:32:29;;;;;;;;;14.33;14.33;;;;;27.11;51.33;65647.94;4976613;28;45411;-75
2022/09/02 11:34:58;;;;;;;;;12.33;12.33;;;;;27.08;51.73;59360.16;4975372;28;45410;-76
2022/09/02 11:37:38;;;;;;;;;17.67;16.33;;;;;27.08;52.76;68688.94;4977117;28;45416;-76
2022/09/02 11:40:49;;;;;;;;;18.67;16.00;;;;;27.07;55.13;62414.44;4973580;28;48375;-76